createdAt,value
2023-06-13T00:00:59.114Z,94400.47
2023-06-13T00:03:25.892Z,94404.94
2023-06-13T00:05:55.352Z,94401.56
2023-06-13T00:08:22.432Z,94399.72
2023-06-13T00:10:49.942Z,94401.53
2023-06-13T00:13:17.773Z,94391.09
2023-06-13T00:15:57.587Z,94384.00
2023-06-13T00:18:24.707Z,94389.19
2023-06-13T00:20:55.954Z,94387.44
2023-06-13T00:23:23.925Z,94384.53
2023-06-13T00:25:51.022Z,94401.28
2023-06-13T00:28:17.854Z,94381.84
2023-06-13T00:30:46.580Z,94399.28
2023-06-13T00:33:17.507Z,94384.88
2023-06-13T00:35:46.706Z,94385.81
2023-06-13T00:38:14.231Z,94381.81
2023-06-13T00:40:41.463Z,94387.13
2023-06-13T00:43:08.637Z,94375.31
2023-06-13T00:45:35.855Z,94375.91
2023-06-13T00:48:07.121Z,94384.44
2023-06-13T00:50:36.221Z,94374.88
2023-06-13T00:53:11.595Z,94361.84
2023-06-13T00:58:08.080Z,94343.63
2023-06-13T01:00:36.150Z,94350.78
2023-06-13T01:03:08.928Z,94363.94
2023-06-13T01:05:36.002Z,94355.31
2023-06-13T01:08:07.822Z,94345.56
2023-06-13T01:10:35.227Z,94354.19
2023-06-13T01:13:04.823Z,94342.25
2023-06-13T01:15:35.707Z,94334.75
2023-06-13T01:18:06.479Z,94341.72
2023-06-13T01:20:35.095Z,94324.03
2023-06-13T01:23:17.841Z,94329.53
2023-06-13T01:26:00.844Z,94335.53
2023-06-13T01:28:33.697Z,94326.50
2023-06-13T01:31:07.773Z,94311.09
2023-06-13T01:33:35.652Z,94340.75
2023-06-13T01:36:03.097Z,94322.34
2023-06-13T01:38:30.367Z,94305.50
2023-06-13T01:40:57.200Z,94318.78
2023-06-13T01:43:24.061Z,94313.03
2023-06-13T01:45:59.875Z,94326.34
2023-06-13T01:48:39.642Z,94312.06
2023-06-13T01:51:09.249Z,94322.53
2023-06-13T01:53:45.032Z,94315.06
2023-06-13T01:56:15.646Z,94318.63
2023-06-13T01:59:04.832Z,94314.66
2023-06-13T02:01:39.512Z,94325.50
2023-06-13T02:04:07.316Z,94313.19
2023-06-13T02:06:34.361Z,94309.47
2023-06-13T02:09:03.109Z,94304.00
2023-06-13T02:11:29.986Z,94302.00
2023-06-13T02:13:56.817Z,94320.09
2023-06-13T02:16:26.483Z,94309.50
2023-06-13T02:18:54.467Z,94312.13
2023-06-13T02:21:23.131Z,94278.50
2023-06-13T02:23:50.746Z,94279.78
2023-06-13T02:26:18.299Z,94289.13
2023-06-13T02:28:49.167Z,94285.09
2023-06-13T02:31:17.420Z,94275.53
2023-06-13T02:33:45.176Z,94284.28
2023-06-13T02:36:13.068Z,94275.19
2023-06-13T02:38:44.105Z,94288.63
2023-06-13T02:41:12.504Z,94284.53
2023-06-13T02:43:39.283Z,94286.56
2023-06-13T02:46:06.465Z,94305.72
2023-06-13T02:48:33.305Z,94294.09
2023-06-13T02:51:00.775Z,94301.75
2023-06-13T02:53:27.558Z,94292.66
2023-06-13T02:55:55.961Z,94289.84
2023-06-13T02:58:22.811Z,94292.47
2023-06-13T03:00:51.273Z,94270.25
2023-06-13T03:03:19.509Z,94280.56
2023-06-13T03:05:48.734Z,94303.53
2023-06-13T03:08:20.238Z,94310.47
2023-06-13T03:10:50.722Z,94306.88
2023-06-13T03:13:22.126Z,94305.66
2023-06-13T03:15:52.847Z,94264.75
2023-06-13T03:18:21.938Z,94299.63
2023-06-13T03:20:48.873Z,94299.78
2023-06-13T03:23:19.167Z,94298.59
2023-06-13T03:25:47.010Z,94310.91
2023-06-13T03:28:13.964Z,94289.03
2023-06-13T03:30:40.900Z,94296.88
2023-06-13T03:33:07.863Z,94310.28
2023-06-13T03:35:39.569Z,94304.53
2023-06-13T03:38:07.285Z,94321.13
2023-06-13T03:40:34.160Z,94325.91
2023-06-13T03:43:00.890Z,94327.94
2023-06-13T03:45:28.365Z,94317.22
2023-06-13T03:47:56.378Z,94298.25
2023-06-13T03:50:23.972Z,94334.22
2023-06-13T03:52:50.812Z,94322.69
2023-06-13T03:55:18.097Z,94320.28
2023-06-13T03:57:44.937Z,94329.09
2023-06-13T04:00:12.992Z,94311.63
2023-06-13T04:02:40.139Z,94310.56
2023-06-13T04:05:08.392Z,94334.78
2023-06-13T04:07:38.506Z,94319.59
2023-06-13T04:10:05.982Z,94294.03
2023-06-13T04:12:36.628Z,94312.06
2023-06-13T04:15:04.324Z,94312.59
2023-06-13T04:17:33.446Z,94334.22
2023-06-13T04:20:00.330Z,94330.59
2023-06-13T04:22:28.340Z,94312.75
2023-06-13T04:24:55.257Z,94321.75
2023-06-13T04:27:29.788Z,94312.78
2023-06-13T04:30:00.792Z,94346.09
2023-06-13T04:32:29.585Z,94329.75
2023-06-13T04:34:59.482Z,94340.28
2023-06-13T04:37:31.711Z,94343.19
2023-06-13T04:39:59.040Z,94350.97
2023-06-13T04:42:28.583Z,94340.19
2023-06-13T04:45:02.533Z,94347.38
2023-06-13T04:47:42.509Z,94335.66
2023-06-13T04:50:20.583Z,94372.72
2023-06-13T04:52:53.341Z,94359.66
2023-06-13T04:55:22.414Z,94353.16
2023-06-13T04:57:49.361Z,94371.50
2023-06-13T05:00:17.253Z,94385.81
2023-06-13T05:02:46.638Z,94358.41
2023-06-13T05:05:17.773Z,94371.94
2023-06-13T05:07:45.647Z,94401.66
2023-06-13T05:10:16.448Z,94386.34
2023-06-13T05:12:45.188Z,94379.31
2023-06-13T05:15:12.007Z,94366.94
2023-06-13T05:17:39.319Z,94402.44
2023-06-13T05:20:07.145Z,94393.44
2023-06-13T05:22:33.904Z,94399.00
2023-06-13T05:25:01.135Z,94396.59
2023-06-13T05:27:28.430Z,94371.75
2023-06-13T05:29:55.404Z,94386.28
2023-06-13T05:32:22.199Z,94399.16
2023-06-13T05:34:49.126Z,94397.94
2023-06-13T05:37:16.102Z,94385.69
2023-06-13T05:39:43.101Z,94386.84
2023-06-13T05:42:10.216Z,94372.41
2023-06-13T05:44:37.386Z,94384.56
2023-06-13T05:47:06.109Z,94409.06
2023-06-13T05:49:32.933Z,94409.69
2023-06-13T05:51:59.719Z,94416.06
2023-06-13T05:54:26.662Z,94407.13
2023-06-13T05:56:53.415Z,94418.56
2023-06-13T05:59:20.230Z,94401.66
2023-06-13T06:01:47.827Z,94423.13
2023-06-13T06:04:14.763Z,94420.31
2023-06-13T06:06:41.707Z,94407.94
2023-06-13T06:09:09.230Z,94444.47
2023-06-13T06:11:36.395Z,94426.38
2023-06-13T06:14:03.540Z,94412.16
2023-06-13T06:16:30.815Z,94422.75
2023-06-13T06:18:57.862Z,94422.38
2023-06-13T06:21:24.734Z,94411.13
2023-06-13T06:23:51.604Z,94416.53
2023-06-13T06:26:18.567Z,94405.22
2023-06-13T06:28:45.449Z,94417.06
2023-06-13T06:31:12.369Z,94417.41
2023-06-13T06:33:39.156Z,94431.38
2023-06-13T06:36:06.218Z,94419.69
2023-06-13T06:38:32.963Z,94422.88
2023-06-13T06:40:59.817Z,94428.13
2023-06-13T06:43:26.653Z,94414.81
2023-06-13T06:45:54.553Z,94417.25
2023-06-13T06:48:21.416Z,94426.56
2023-06-13T06:50:48.147Z,94434.78
2023-06-13T06:53:14.908Z,94448.16
2023-06-13T06:55:41.631Z,94427.44
2023-06-13T06:58:08.368Z,94456.50
2023-06-13T07:00:35.247Z,94435.00
2023-06-13T07:03:02.105Z,94428.53
2023-06-13T07:05:28.883Z,94435.50
2023-06-13T07:07:55.697Z,94435.19
2023-06-13T07:10:23.000Z,94441.34
2023-06-13T07:12:49.797Z,94429.88
2023-06-13T07:15:16.590Z,94419.19
2023-06-13T07:17:43.436Z,94440.44
2023-06-13T07:20:11.024Z,94429.97
2023-06-13T07:22:37.856Z,94432.31
2023-06-13T07:25:05.313Z,94427.53
2023-06-13T07:27:32.111Z,94429.22
2023-06-13T07:29:58.958Z,94429.91
2023-06-13T07:32:25.748Z,94439.69
2023-06-13T07:35:05.058Z,94438.56
2023-06-13T07:37:33.613Z,94408.69
2023-06-13T07:40:00.645Z,94423.91
2023-06-13T07:42:27.822Z,94448.59
2023-06-13T07:44:54.982Z,94436.13
2023-06-13T07:47:21.847Z,94441.44
2023-06-13T07:49:48.912Z,94425.97
2023-06-13T07:52:16.006Z,94426.19
2023-06-13T07:54:42.840Z,94430.91
2023-06-13T07:59:39.610Z,94426.50
2023-06-13T08:02:07.046Z,94422.72
2023-06-13T08:04:48.399Z,94401.03
2023-06-13T08:07:19.645Z,94418.13
2023-06-13T08:09:46.553Z,94418.28
2023-06-13T08:12:13.468Z,94390.91
2023-06-13T08:14:40.235Z,94418.78
2023-06-13T08:17:07.239Z,94416.34
2023-06-13T08:19:34.008Z,94427.50
2023-06-13T08:22:00.873Z,94421.47
2023-06-13T08:24:27.767Z,94421.56
2023-06-13T08:26:54.883Z,94431.38
2023-06-13T08:29:21.818Z,94405.38
2023-06-13T08:31:50.135Z,94433.66
2023-06-13T08:34:18.026Z,94429.38
2023-06-13T08:36:45.077Z,94423.09
2023-06-13T08:39:13.057Z,94422.72
2023-06-13T08:41:41.475Z,94423.06
2023-06-13T08:44:08.750Z,94424.59
2023-06-13T08:46:37.854Z,94416.88
2023-06-13T08:49:05.188Z,94444.50
2023-06-13T08:51:33.045Z,94434.44
2023-06-13T08:54:01.430Z,94448.66
2023-06-13T08:56:29.935Z,94447.94
2023-06-13T08:59:20.657Z,94463.44
2023-06-13T09:01:48.823Z,94457.59
2023-06-13T09:04:17.454Z,94454.91
2023-06-13T09:06:46.513Z,94423.84
2023-06-13T09:09:17.358Z,94453.22
2023-06-13T09:11:48.476Z,94448.00
2023-06-13T09:14:18.405Z,94427.38
2023-06-13T09:16:46.838Z,94467.00
2023-06-13T09:19:13.992Z,94457.34
2023-06-13T09:21:42.114Z,94448.19
2023-06-13T09:24:10.260Z,94437.72
2023-06-13T09:26:38.279Z,94445.44
2023-06-13T09:29:21.274Z,94451.75
2023-06-13T09:31:59.913Z,94458.53
2023-06-13T09:34:29.637Z,94442.66
2023-06-13T09:36:58.846Z,94441.00
2023-06-13T09:39:27.960Z,94453.88
2023-06-13T09:41:57.072Z,94450.75
2023-06-13T09:44:27.302Z,94423.75
2023-06-13T09:46:55.777Z,94438.41
2023-06-13T09:49:25.823Z,94438.78
2023-06-13T09:51:53.861Z,94431.03
2023-06-13T09:54:21.730Z,94448.09
2023-06-13T09:56:48.587Z,94443.13
2023-06-13T09:59:18.920Z,94423.69
2023-06-13T10:01:49.260Z,94460.97
2023-06-13T10:04:16.890Z,94435.50
2023-06-13T10:06:44.064Z,94420.53
2023-06-13T10:09:13.799Z,94411.09
2023-06-13T10:11:44.666Z,94432.53
2023-06-13T10:14:17.702Z,94416.25
2023-06-13T10:17:08.448Z,94428.75
2023-06-13T10:19:40.588Z,94431.47
2023-06-13T10:22:09.489Z,94447.81
2023-06-13T10:24:37.936Z,94458.38
2023-06-13T10:27:06.884Z,94451.91
2023-06-13T10:29:58.439Z,94448.59
2023-06-13T10:32:57.332Z,94441.72
2023-06-13T10:35:45.116Z,94439.66
2023-06-13T10:38:24.017Z,94447.50
2023-06-13T10:41:10.366Z,94453.81
2023-06-13T10:43:43.433Z,94456.22
2023-06-13T10:46:10.838Z,94436.63
2023-06-13T10:48:39.703Z,94451.31
2023-06-13T10:51:12.873Z,94449.59
2023-06-13T10:53:39.750Z,94470.38
2023-06-13T10:56:10.067Z,94460.16
2023-06-13T10:58:36.971Z,94466.66
2023-06-13T11:01:26.746Z,94472.00
2023-06-13T11:03:53.774Z,94469.56
2023-06-13T11:06:20.577Z,94447.44
2023-06-13T11:09:17.050Z,94443.59
2023-06-13T11:11:55.263Z,94438.78
2023-06-13T11:14:25.508Z,94444.44
2023-06-13T11:16:53.597Z,94406.66
2023-06-13T11:19:30.903Z,94445.97
2023-06-13T11:22:00.794Z,94444.34
2023-06-13T11:24:31.476Z,94422.75
2023-06-13T11:27:05.020Z,94441.81
2023-06-13T11:29:35.876Z,94429.09
2023-06-13T11:32:05.739Z,94436.78
2023-06-13T11:34:34.861Z,94448.63
2023-06-13T11:37:37.205Z,94437.66
2023-06-13T11:42:34.971Z,94431.84
2023-06-13T11:45:01.794Z,94425.28
2023-06-13T11:47:28.938Z,94433.41
2023-06-13T11:49:59.643Z,94436.94
2023-06-13T11:52:26.666Z,94442.75
2023-06-13T11:54:53.670Z,94425.19
2023-06-13T11:57:20.586Z,94445.59
2023-06-13T11:59:57.772Z,94435.34
2023-06-13T12:02:27.104Z,94444.78
2023-06-13T12:04:54.323Z,94437.75
2023-06-13T12:07:21.634Z,94456.63
2023-06-13T12:09:48.612Z,94479.50
2023-06-13T12:12:15.669Z,94453.78
2023-06-13T12:14:42.625Z,94450.31
2023-06-13T12:17:10.906Z,94445.97
2023-06-13T12:19:38.182Z,94477.72
2023-06-13T12:22:05.031Z,94438.25
2023-06-13T12:24:32.846Z,94436.97
2023-06-13T12:26:59.927Z,94463.56
2023-06-13T12:29:29.234Z,94447.25
2023-06-13T12:32:03.884Z,94455.84
2023-06-13T12:34:32.615Z,94452.34
2023-06-13T12:37:03.382Z,94452.81
2023-06-13T12:39:33.283Z,94447.97
2023-06-13T12:42:03.334Z,94425.94
2023-06-13T12:44:32.636Z,94433.88
2023-06-13T12:47:00.803Z,94413.34
2023-06-13T12:49:27.731Z,94434.59
2023-06-13T12:51:54.810Z,94426.28
2023-06-13T12:54:25.230Z,94423.34
2023-06-13T12:56:56.561Z,94430.25
2023-06-13T12:59:37.474Z,94425.22
2023-06-13T13:02:16.502Z,94428.94
2023-06-13T13:04:45.281Z,94419.94
2023-06-13T13:07:15.173Z,94418.78
2023-06-13T13:09:44.842Z,94408.53
2023-06-13T13:12:15.060Z,94379.44
2023-06-13T13:14:42.517Z,94396.69
2023-06-13T13:17:09.498Z,94404.38
2023-06-13T13:19:36.634Z,94380.44
2023-06-13T13:22:04.596Z,94390.88
2023-06-13T13:24:35.363Z,94405.47
2023-06-13T13:27:02.418Z,94412.63
2023-06-13T13:29:30.657Z,94401.41
2023-06-13T13:31:57.620Z,94401.28
2023-06-13T13:34:25.877Z,94396.28
2023-06-13T13:36:54.851Z,94386.94
2023-06-13T13:39:22.496Z,94413.75
2023-06-13T13:41:49.417Z,94395.28
2023-06-13T13:44:16.592Z,94403.69
2023-06-13T13:46:43.721Z,94423.81
2023-06-13T13:49:11.301Z,94407.38
2023-06-13T13:51:39.059Z,94406.22
2023-06-13T13:54:07.176Z,94424.22
2023-06-13T13:56:34.182Z,94401.44
2023-06-13T13:59:01.565Z,94409.56
2023-06-13T14:01:29.054Z,94398.69
2023-06-13T14:03:56.159Z,94411.75
2023-06-13T14:06:23.026Z,94415.78
2023-06-13T14:08:49.906Z,94396.72
2023-06-13T14:11:17.064Z,94397.91
2023-06-13T14:13:44.097Z,94423.63
2023-06-13T14:16:11.506Z,94416.94
2023-06-13T14:18:38.711Z,94417.19
2023-06-13T14:21:06.122Z,94422.00
2023-06-13T14:23:33.206Z,94404.63
2023-06-13T14:26:00.630Z,94402.44
2023-06-13T14:28:27.434Z,94403.97
2023-06-13T14:30:54.288Z,94411.03
2023-06-13T14:33:21.176Z,94414.53
2023-06-13T14:35:47.972Z,94403.06
2023-06-13T14:38:14.800Z,94406.00
2023-06-13T14:40:41.912Z,94395.50
2023-06-13T14:43:08.813Z,94412.84
2023-06-13T14:45:35.678Z,94398.31
2023-06-13T14:48:03.453Z,94422.59
2023-06-13T14:50:30.473Z,94413.22
2023-06-13T14:52:58.419Z,94407.22
2023-06-13T14:55:26.672Z,94405.00
2023-06-13T14:57:53.447Z,94402.69
2023-06-13T15:00:23.258Z,94422.69
2023-06-13T15:02:52.343Z,94421.25
2023-06-13T15:05:20.361Z,94418.66
2023-06-13T15:07:47.429Z,94428.31
2023-06-13T15:10:14.573Z,94431.31
2023-06-13T15:12:41.881Z,94429.84
2023-06-13T15:15:08.976Z,94428.41
2023-06-13T15:17:35.838Z,94425.75
2023-06-13T15:20:06.368Z,94410.91
2023-06-13T15:22:33.131Z,94401.59
2023-06-13T15:25:00.716Z,94382.16
2023-06-13T15:27:27.926Z,94382.72
2023-06-13T15:29:54.748Z,94377.72
2023-06-13T15:32:22.800Z,94386.53
2023-06-13T15:34:51.566Z,94380.66
2023-06-13T15:37:19.820Z,94373.94
2023-06-13T15:39:46.843Z,94400.03
2023-06-13T15:42:13.878Z,94421.16
2023-06-13T15:44:42.295Z,94405.13
2023-06-13T15:47:11.300Z,94401.63
2023-06-13T15:49:39.048Z,94397.31
2023-06-13T15:52:06.466Z,94392.34
2023-06-13T15:54:33.323Z,94396.97
2023-06-13T15:57:00.487Z,94399.84
2023-06-13T15:59:27.374Z,94393.44
2023-06-13T16:01:56.591Z,94397.22
2023-06-13T16:04:27.326Z,94389.59
2023-06-13T16:06:56.741Z,94393.25
2023-06-13T16:09:24.005Z,94387.59
2023-06-13T16:11:50.922Z,94362.53
2023-06-13T16:14:17.867Z,94370.72
2023-06-13T16:16:44.724Z,94380.75
2023-06-13T16:19:11.663Z,94381.69
2023-06-13T16:21:38.787Z,94383.47
2023-06-13T16:24:07.257Z,94382.59
2023-06-13T16:26:34.521Z,94384.97
2023-06-13T16:29:01.383Z,94372.84
2023-06-13T16:31:28.500Z,94378.50
2023-06-13T16:33:55.388Z,94376.13
2023-06-13T16:36:22.473Z,94375.50
2023-06-13T16:38:49.271Z,94367.78
2023-06-13T16:41:16.108Z,94372.66
2023-06-13T16:43:43.800Z,94359.56
2023-06-13T16:46:10.869Z,94365.75
2023-06-13T16:48:37.685Z,94362.53
2023-06-13T16:51:04.430Z,94360.50
2023-06-13T16:53:31.191Z,94373.66
2023-06-13T16:55:58.059Z,94354.28
2023-06-13T16:58:24.939Z,94364.97
2023-06-13T17:00:53.798Z,94366.72
2023-06-13T17:03:21.250Z,94371.13
2023-06-13T17:05:48.337Z,94380.72
2023-06-13T17:08:15.572Z,94385.19
2023-06-13T17:10:42.337Z,94384.28
2023-06-13T17:13:09.361Z,94383.44
2023-06-13T17:15:36.362Z,94383.19
2023-06-13T17:18:04.012Z,94377.22
2023-06-13T17:20:30.971Z,94368.66
2023-06-13T17:22:57.934Z,94356.19
2023-06-13T17:25:24.780Z,94358.16
2023-06-13T17:27:51.564Z,94366.31
2023-06-13T17:30:19.010Z,94369.81
2023-06-13T17:32:47.337Z,94376.00
2023-06-13T17:35:14.325Z,94366.22
2023-06-13T17:37:41.542Z,94365.53
2023-06-13T17:40:09.356Z,94364.38
2023-06-13T17:42:36.242Z,94367.78
2023-06-13T17:45:04.372Z,94364.00
2023-06-13T17:47:32.555Z,94358.50
2023-06-13T17:49:59.437Z,94351.84
2023-06-13T17:52:26.536Z,94350.50
2023-06-13T17:54:53.281Z,94348.44
2023-06-13T17:57:20.050Z,94349.66
2023-06-13T17:59:47.187Z,94347.41
2023-06-13T18:02:15.042Z,94347.41
2023-06-13T18:04:41.868Z,94345.34
2023-06-13T18:07:08.789Z,94338.53
2023-06-13T18:09:35.557Z,94351.88
2023-06-13T18:12:13.109Z,94344.91
2023-06-13T18:14:47.812Z,94338.69
2023-06-13T18:17:14.603Z,94348.38
2023-06-13T18:19:41.380Z,94350.09
2023-06-13T18:22:08.738Z,94347.56
2023-06-13T18:24:36.072Z,94339.84
2023-06-13T18:27:03.337Z,94341.78
2023-06-13T18:29:30.140Z,94350.16
2023-06-13T18:31:56.942Z,94342.03
2023-06-13T18:34:23.798Z,94350.28
2023-06-13T18:36:51.706Z,94336.16
2023-06-13T18:39:18.475Z,94326.41
2023-06-13T18:41:45.327Z,94343.66
2023-06-13T18:44:14.145Z,94346.53
2023-06-13T18:46:41.044Z,94344.53
2023-06-13T18:49:08.139Z,94332.19
2023-06-13T18:51:35.098Z,94334.53
2023-06-13T18:54:01.851Z,94326.22
2023-06-13T18:56:29.136Z,94319.63
2023-06-13T18:58:57.949Z,94312.38
2023-06-13T19:01:25.827Z,94307.13
2023-06-13T19:03:53.263Z,94319.41
2023-06-13T19:06:20.129Z,94312.81
2023-06-13T19:08:47.210Z,94309.59
2023-06-13T19:11:14.117Z,94314.66
2023-06-13T19:13:40.890Z,94308.69
2023-06-13T19:16:07.723Z,94302.72
2023-06-13T19:18:34.536Z,94303.78
2023-06-13T19:21:01.728Z,94291.16
2023-06-13T19:23:28.839Z,94295.75
2023-06-13T19:25:55.714Z,94291.28
2023-06-13T19:28:23.252Z,94294.84
2023-06-13T19:30:50.469Z,94282.66
2023-06-13T19:33:17.705Z,94289.31
2023-06-13T19:35:44.982Z,94279.94
2023-06-13T19:38:11.822Z,94287.63
2023-06-13T19:40:38.831Z,94277.41
2023-06-13T19:43:06.157Z,94277.22
2023-06-13T19:45:32.989Z,94282.59
2023-06-13T19:48:06.820Z,94279.41
2023-06-13T19:50:34.030Z,94272.88
2023-06-13T19:53:01.059Z,94277.16
2023-06-13T19:55:27.929Z,94276.06
2023-06-13T19:57:55.768Z,94274.41
2023-06-13T20:00:22.802Z,94273.38
2023-06-13T20:02:49.602Z,94263.16
2023-06-13T20:05:16.641Z,94265.09
2023-06-13T20:07:44.274Z,94267.84
2023-06-13T20:10:11.373Z,94258.91
2023-06-13T20:12:38.575Z,94273.94
2023-06-13T20:15:06.528Z,94264.03
2023-06-13T20:17:36.766Z,94269.66
2023-06-13T20:20:11.638Z,94274.31
2023-06-13T20:22:43.091Z,94269.19
2023-06-13T20:25:11.599Z,94265.59
2023-06-13T20:30:08.163Z,94256.59
2023-06-13T20:32:36.605Z,94254.13
2023-06-13T20:35:04.274Z,94269.44
2023-06-13T20:37:31.602Z,94262.72
2023-06-13T20:40:05.479Z,94248.16
2023-06-13T20:42:33.167Z,94256.66
2023-06-13T20:45:05.198Z,94255.34
2023-06-13T20:47:35.190Z,94259.59
2023-06-13T20:50:04.599Z,94248.16
2023-06-13T20:52:32.260Z,94251.34
2023-06-13T20:54:59.100Z,94251.31
2023-06-13T20:57:26.289Z,94254.28
2023-06-13T20:59:54.157Z,94251.59
2023-06-13T21:02:21.268Z,94253.16
2023-06-13T21:04:48.239Z,94260.28
2023-06-13T21:07:17.322Z,94262.75
2023-06-13T21:09:44.578Z,94253.25
2023-06-13T21:12:13.152Z,94257.81
2023-06-13T21:14:42.664Z,94252.28
2023-06-13T21:17:10.538Z,94243.25
2023-06-13T21:19:37.347Z,94259.91
2023-06-13T21:22:04.490Z,94245.25
2023-06-13T21:24:32.475Z,94241.81
2023-06-13T21:26:59.373Z,94230.34
2023-06-13T21:29:26.256Z,94240.53
2023-06-13T21:31:53.243Z,94233.44
2023-06-13T21:34:20.140Z,94219.22
2023-06-13T21:36:47.363Z,94217.91
2023-06-13T21:39:14.320Z,94229.34
2023-06-13T21:41:41.225Z,94249.50
2023-06-13T21:44:08.139Z,94236.47
2023-06-13T21:46:34.952Z,94230.88
2023-06-13T21:49:01.729Z,94231.34
2023-06-13T21:51:28.597Z,94240.84
2023-06-13T21:53:55.659Z,94241.97
2023-06-13T21:56:22.441Z,94234.13
2023-06-13T21:58:49.325Z,94221.31
2023-06-13T22:01:16.117Z,94225.63
2023-06-13T22:03:42.969Z,94228.75
2023-06-13T22:06:09.905Z,94239.16
2023-06-13T22:08:37.536Z,94250.91
2023-06-13T22:11:05.501Z,94253.47
2023-06-13T22:13:32.545Z,94260.00
2023-06-13T22:15:59.400Z,94258.78
2023-06-13T22:18:26.864Z,94246.97
2023-06-13T22:20:54.659Z,94233.94
2023-06-13T22:23:22.280Z,94248.88
2023-06-13T22:25:49.558Z,94240.84
2023-06-13T22:28:18.154Z,94237.28
2023-06-13T22:30:51.961Z,94247.25
2023-06-13T22:33:18.726Z,94237.69
2023-06-13T22:35:45.851Z,94237.50
2023-06-13T22:38:12.606Z,94229.59
2023-06-13T22:40:39.581Z,94232.06
2023-06-13T22:43:08.203Z,94230.09
2023-06-13T22:45:35.392Z,94225.06
2023-06-13T22:48:05.724Z,94210.97
2023-06-13T22:50:35.742Z,94232.09
2023-06-13T22:53:03.905Z,94230.84
2023-06-13T22:55:30.897Z,94223.63
2023-06-13T22:57:57.774Z,94211.59
2023-06-13T23:00:24.502Z,94218.69
2023-06-13T23:02:52.667Z,94203.63
2023-06-13T23:05:19.541Z,94214.41
2023-06-13T23:07:47.231Z,94215.53
2023-06-13T23:10:14.422Z,94200.22
2023-06-13T23:12:41.405Z,94198.38
2023-06-13T23:15:08.924Z,94203.94
2023-06-13T23:17:35.872Z,94207.09
2023-06-13T23:20:03.767Z,94193.41
2023-06-13T23:22:30.566Z,94197.81
2023-06-13T23:24:59.068Z,94192.94
2023-06-13T23:27:26.253Z,94191.31
2023-06-13T23:29:54.186Z,94185.06
2023-06-13T23:32:26.650Z,94177.44
2023-06-13T23:34:56.545Z,94174.09
2023-06-13T23:37:24.745Z,94172.78
2023-06-13T23:39:54.892Z,94175.00
2023-06-13T23:42:21.629Z,94167.16
2023-06-13T23:44:48.481Z,94165.88
2023-06-13T23:47:15.409Z,94169.94
2023-06-13T23:49:42.323Z,94155.44
2023-06-13T23:52:09.127Z,94163.19
2023-06-13T23:54:36.745Z,94155.91
2023-06-13T23:57:04.406Z,94156.19
2023-06-13T23:59:31.191Z,94158.63
